createdAt,value
2023-03-23T15:58:17.651Z,10.90
2023-03-23T16:00:46.865Z,10.80
2023-03-23T16:03:27.591Z,10.80
2023-03-23T16:06:03.435Z,10.70
2023-03-23T16:08:32.240Z,10.70
2023-03-23T16:11:36.013Z,10.70
2023-03-23T16:14:03.664Z,10.60
2023-03-23T16:16:47.303Z,10.70
2023-03-23T16:19:24.957Z,10.60
2023-03-23T16:21:52.459Z,10.50
2023-03-23T16:24:20.350Z,10.50
2023-03-23T16:26:47.572Z,10.30
2023-03-23T16:29:33.678Z,10.30
2023-03-23T16:32:01.820Z,10.20
2023-03-23T16:34:41.878Z,10.10
2023-03-23T16:37:12.126Z,10.00
2023-03-23T16:39:41.992Z,9.90
2023-03-23T16:42:11.572Z,9.80
2023-03-23T16:44:38.573Z,9.60
2023-03-23T16:47:11.970Z,9.50
2023-03-23T16:52:46.037Z,9.40
2023-03-23T16:55:18.897Z,9.20
2023-03-23T16:58:16.567Z,9.20
2023-03-23T17:00:51.669Z,9.10
2023-03-23T17:25:11.625Z,8.60
2023-03-23T18:07:23.570Z,7.90
2023-03-23T18:09:51.380Z,7.80
2023-03-23T18:12:18.802Z,7.80
2023-03-23T18:14:46.125Z,7.70
2023-03-23T18:17:13.379Z,7.70
2023-03-23T18:19:42.798Z,7.60
2023-03-23T18:22:09.870Z,7.60
2023-03-23T18:24:36.962Z,7.60
2023-03-23T18:27:04.233Z,7.60
2023-03-23T18:29:32.401Z,7.60
2023-03-23T18:31:59.476Z,7.40
2023-03-23T18:34:27.138Z,7.30
2023-03-23T18:36:54.200Z,7.30
2023-03-23T18:39:41.414Z,7.30
2023-03-23T18:42:08.878Z,7.20
2023-03-23T18:44:35.975Z,7.20
2023-03-23T18:47:05.163Z,7.10
2023-03-23T18:49:33.909Z,7.10
2023-03-23T18:52:03.713Z,7.00
2023-03-23T18:54:34.888Z,7.00
2023-03-23T18:57:03.054Z,6.90
2023-03-23T18:59:30.677Z,6.90
2023-03-23T19:01:58.505Z,6.80
2023-03-23T19:04:26.031Z,6.80
2023-03-23T19:06:55.793Z,6.80
2023-03-23T19:09:25.286Z,6.80
2023-03-23T19:11:52.970Z,6.70
2023-03-23T19:14:22.504Z,6.70
2023-03-23T19:16:49.841Z,6.70
2023-03-23T19:19:16.885Z,6.70
2023-03-23T19:21:46.935Z,6.70
2023-03-23T19:24:14.427Z,6.70
2023-03-23T19:26:44.814Z,6.80
2023-03-23T19:31:47.327Z,6.70
2023-03-23T19:34:23.076Z,6.70
2023-03-23T19:36:56.484Z,6.70
2023-03-23T19:39:33.414Z,6.70
2023-03-23T19:42:01.111Z,6.80
2023-03-23T19:44:28.861Z,6.70
2023-03-23T19:46:56.781Z,6.70
2023-03-23T19:49:25.071Z,6.80
2023-03-23T19:52:07.167Z,6.80
2023-03-23T19:54:36.723Z,6.80
2023-03-23T19:57:08.154Z,6.80
2023-03-23T19:59:35.485Z,6.80
2023-03-23T20:02:03.847Z,6.80
2023-03-23T20:07:14.054Z,6.90
2023-03-23T20:09:41.405Z,6.90
2023-03-23T20:12:09.692Z,6.90
2023-03-23T20:14:38.359Z,6.90
2023-03-23T20:17:06.052Z,6.90
2023-03-23T20:19:40.360Z,6.90
2023-03-23T20:22:07.933Z,7.00
2023-03-23T20:24:35.090Z,7.00
2023-03-23T20:27:04.014Z,6.90
2023-03-23T20:29:31.587Z,6.90
2023-03-23T20:31:59.572Z,6.80
2023-03-23T20:34:29.752Z,6.80
2023-03-23T20:36:58.539Z,6.80
2023-03-23T20:39:30.721Z,6.70
2023-03-23T20:42:00.720Z,6.70
2023-03-23T20:44:31.443Z,6.70
2023-03-23T20:47:04.968Z,6.60
2023-03-23T20:49:34.084Z,6.60
2023-03-23T20:52:02.000Z,6.60
2023-03-23T20:54:30.337Z,6.60
2023-03-23T20:56:58.913Z,6.60
2023-03-23T20:59:26.359Z,6.60
2023-03-23T21:01:54.141Z,6.60
2023-03-23T21:04:24.136Z,6.70
2023-03-23T21:06:52.623Z,6.70
2023-03-23T21:09:20.929Z,6.70
2023-03-23T21:11:48.598Z,6.80
2023-03-23T21:14:15.919Z,6.80
2023-03-23T21:16:43.816Z,6.90
2023-03-23T21:19:12.747Z,6.90
2023-03-23T21:21:55.382Z,6.80
2023-03-23T21:24:26.885Z,6.80
2023-03-23T21:26:59.394Z,6.90
2023-03-23T21:29:27.636Z,6.90
2023-03-23T21:32:08.157Z,6.80
2023-03-23T21:34:37.202Z,6.80
2023-03-23T21:37:05.139Z,6.80
2023-03-23T21:39:32.417Z,6.90
2023-03-23T21:41:59.943Z,6.90
2023-03-23T21:44:27.062Z,6.90
2023-03-23T21:46:54.630Z,7.00
2023-03-23T21:49:22.116Z,7.10
2023-03-23T21:51:50.161Z,7.10
2023-03-23T21:54:17.540Z,7.10
2023-03-23T21:56:44.719Z,7.10
2023-03-23T21:59:12.185Z,7.10
2023-03-23T22:01:40.628Z,7.10
2023-03-23T22:04:08.364Z,7.10
2023-03-23T22:06:38.299Z,7.10
2023-03-23T22:09:05.954Z,7.20
2023-03-23T22:11:34.265Z,7.10
2023-03-23T22:14:01.817Z,7.10
2023-03-23T22:16:29.554Z,7.10
2023-03-23T22:19:00.201Z,7.10
2023-03-23T22:21:28.032Z,7.00
2023-03-23T22:23:58.703Z,7.00
2023-03-23T22:26:27.347Z,7.00
2023-03-23T22:28:55.446Z,6.90
2023-03-23T22:31:25.600Z,6.90
2023-03-23T22:33:55.224Z,6.90
2023-03-23T22:36:27.541Z,6.90
2023-03-23T22:38:56.452Z,6.80
2023-03-23T22:41:30.280Z,6.90
2023-03-23T22:43:57.757Z,6.90
2023-03-23T22:46:25.684Z,6.90
2023-03-23T22:48:53.379Z,6.90
2023-03-23T22:51:21.710Z,6.90
2023-03-23T22:53:49.917Z,6.90
2023-03-23T22:56:17.552Z,7.00
2023-03-23T22:58:45.422Z,7.00
2023-03-23T23:01:18.450Z,7.00
2023-03-23T23:03:46.424Z,7.10
2023-03-23T23:06:15.045Z,7.10
2023-03-23T23:08:45.708Z,7.10
2023-03-23T23:11:14.899Z,7.20
2023-03-23T23:13:42.455Z,7.20
2023-03-23T23:16:11.200Z,7.10
2023-03-23T23:19:06.283Z,7.10
2023-03-23T23:21:33.496Z,7.10
2023-03-23T23:24:08.370Z,7.10
2023-03-23T23:26:38.035Z,7.10
2023-03-23T23:29:08.261Z,7.10
2023-03-23T23:31:35.819Z,7.00
2023-03-23T23:34:04.365Z,7.00
2023-03-23T23:36:32.461Z,7.00
2023-03-23T23:39:01.274Z,6.90
2023-03-23T23:41:30.144Z,7.00
2023-03-23T23:43:57.690Z,6.90
2023-03-23T23:46:24.785Z,6.90
2023-03-23T23:48:52.008Z,6.90
2023-03-23T23:51:19.555Z,6.90
2023-03-23T23:53:53.292Z,6.80
2023-03-23T23:56:21.670Z,6.80
2023-03-23T23:58:49.083Z,6.80
